Time;durP1;ratioP1;P1;durP2;ratioP2;P2;SDS_P1;SDS_P2;PMS_P1;PMS_P2;Temp;Humidity;BMP_temperature;BMP_pressure;BME280_temperature;BME280_humidity;BME280_pressure;Samples;Min_cycle;Max_cycle;Signal;HPM_P1;HPM_P2
2023/10/20 00:00:06;;;;;;;23.13;17.05;;;;;;;13.29;100.00;98563.06;6278883;22;20000;-72
2023/10/20 00:02:33;;;;;;;22.30;16.98;;;;;;;13.18;100.00;98541.69;6278609;22;20000;-83
2023/10/20 00:05:03;;;;;;;25.83;17.58;;;;;;;13.27;100.00;98560.63;6278913;22;20445;-81
2023/10/20 00:07:29;;;;;;;21.98;17.63;;;;;;;13.26;100.00;98561.59;6279156;22;20000;-74
2023/10/20 00:09:55;;;;;;;22.23;17.02;;;;;;;13.19;100.00;98555.50;6278828;22;20020;-72
2023/10/20 00:12:20;;;;;;;25.90;17.33;;;;;;;13.26;100.00;98563.38;6279110;22;19999;-73
2023/10/20 00:14:45;;;;;;;21.30;17.08;;;;;;;13.22;100.00;98551.75;6279545;22;20419;-73
2023/10/20 00:17:11;;;;;;;24.20;17.92;;;;;;;13.27;100.00;98560.63;6278678;22;20061;-73
2023/10/20 00:19:36;;;;;;;21.88;17.58;;;;;;;13.23;100.00;98543.81;6279278;22;20007;-74
2023/10/20 00:22:01;;;;;;;22.27;16.73;;;;;;;13.29;100.00;98558.69;6276906;22;20014;-75
2023/10/20 00:24:27;;;;;;;21.95;16.15;;;;;;;13.31;100.00;98559.31;6279105;22;20031;-73
2023/10/20 00:26:52;;;;;;;22.10;17.73;;;;;;;13.31;100.00;98550.75;6279105;22;20007;-73
2023/10/20 00:29:17;;;;;;;21.23;17.35;;;;;;;13.31;100.00;98542.97;6278988;22;19999;-73
2023/10/20 00:31:43;;;;;;;22.20;18.35;;;;;;;13.32;100.00;98535.00;6278990;22;20429;-74
2023/10/20 00:34:08;;;;;;;23.33;18.27;;;;;;;13.28;100.00;98523.38;6278832;22;20447;-72
2023/10/20 00:36:33;;;;;;;23.67;18.50;;;;;;;13.31;100.00;98525.63;6278775;22;20426;-73
2023/10/20 00:38:59;;;;;;;21.45;17.33;;;;;;;13.29;100.00;98512.03;6279021;22;19999;-74
2023/10/20 00:41:24;;;;;;;25.85;18.50;;;;;;;13.27;100.00;98511.38;6278642;22;20007;-73
2023/10/20 00:43:49;;;;;;;27.55;19.75;;;;;;;13.26;100.00;98504.56;6278095;22;20030;-73
2023/10/20 00:46:14;;;;;;;26.95;20.27;;;;;;;13.25;100.00;98494.38;6276708;22;20039;-72
2023/10/20 00:48:40;;;;;;;26.20;19.73;;;;;;;13.22;100.00;98481.78;6277033;22;20027;-73
2023/10/20 00:51:06;;;;;;;26.10;18.60;;;;;;;13.17;100.00;98477.91;6277377;22;20031;-72
2023/10/20 00:53:33;;;;;;;26.35;20.42;;;;;;;13.16;100.00;98468.47;6277025;22;20422;-73
2023/10/20 00:56:00;;;;;;;24.60;19.13;;;;;;;13.03;100.00;98455.28;6276926;22;20004;-72
2023/10/20 00:58:27;;;;;;;27.60;20.25;;;;;;;13.14;100.00;98469.63;6276616;22;20011;-72
2023/10/20 01:00:53;;;;;;;24.95;19.35;;;;;;;13.13;100.00;98462.84;6277078;22;20007;-71
2023/10/20 01:03:19;;;;;;;26.83;20.60;;;;;;;13.06;100.00;98446.34;6276908;22;20471;-73
2023/10/20 01:05:44;;;;;;;24.33;19.17;;;;;;;13.07;100.00;98445.38;6277279;22;20004;-72
2023/10/20 01:08:09;;;;;;;25.95;20.25;;;;;;;13.10;100.00;98451.03;6276801;22;20092;-73
2023/10/20 01:10:35;;;;;;;28.17;19.65;;;;;;;13.10;100.00;98445.84;6276702;22;20015;-76
2023/10/20 01:13:00;;;;;;;26.60;19.55;;;;;;;13.09;100.00;98433.06;6276760;22;20069;-75
2023/10/20 01:15:27;;;;;;;29.27;19.40;;;;;;;13.09;100.00;98440.84;6277047;22;20023;-78
2023/10/20 01:17:52;;;;;;;25.73;19.95;;;;;;;13.03;100.00;98428.56;6275155;22;20004;-73
2023/10/20 01:20:17;;;;;;;26.48;19.38;;;;;;;13.07;100.00;98425.44;6277104;22;20034;-72
2023/10/20 01:22:44;;;;;;;27.40;20.05;;;;;;;12.99;100.00;98402.22;6277192;22;20058;-74
2023/10/20 01:25:11;;;;;;;28.75;20.30;;;;;;;13.06;100.00;98405.69;6276842;22;20003;-73
2023/10/20 01:27:36;;;;;;;26.27;19.85;;;;;;;13.04;100.00;98396.50;6276792;22;20004;-73
2023/10/20 01:30:03;;;;;;;29.42;20.58;;;;;;;12.93;100.00;98385.56;6276829;22;20011;-73
2023/10/20 01:32:28;;;;;;;25.17;20.55;;;;;;;13.02;100.00;98391.50;6277050;22;20003;-75
2023/10/20 01:34:54;;;;;;;27.08;19.85;;;;;;;13.05;100.00;98385.16;6276574;22;20368;-72
2023/10/20 01:37:19;;;;;;;25.83;19.02;;;;;;;13.05;100.00;98393.72;6276715;22;20090;-74
2023/10/20 01:39:45;;;;;;;27.10;19.35;;;;;;;13.05;100.00;98391.13;6276645;22;20014;-74
2023/10/20 01:42:10;;;;;;;25.10;19.77;;;;;;;12.97;100.00;98391.19;6276622;22;20004;-72
2023/10/20 01:44:36;;;;;;;24.50;19.70;;;;;;;13.04;100.00;98399.09;6276678;22;20037;-72
2023/10/20 01:47:01;;;;;;;24.05;19.50;;;;;;;13.01;100.00;98397.66;6276596;22;20322;-73
2023/10/20 01:49:26;;;;;;;26.48;18.73;;;;;;;12.96;100.00;98383.59;6276551;22;20007;-73
2023/10/20 01:51:52;;;;;;;30.13;19.73;;;;;;;12.95;100.00;98385.38;6276715;22;20422;-72
2023/10/20 01:54:17;;;;;;;26.67;19.38;;;;;;;12.92;100.00;98371.00;6276804;22;20034;-71
2023/10/20 01:56:43;;;;;;;27.48;19.65;;;;;;;12.82;100.00;98346.28;6273727;22;20043;-72
2023/10/20 01:59:09;;;;;;;26.40;19.08;;;;;;;13.01;100.00;98379.53;6276358;22;20048;-71
2023/10/20 02:01:34;;;;;;;24.67;19.25;;;;;;;13.01;100.00;98374.34;6276604;22;20008;-73
2023/10/20 02:04:00;;;;;;;26.58;19.52;;;;;;;12.93;100.00;98362.25;6276672;22;20004;-73
2023/10/20 02:06:26;;;;;;;25.10;19.48;;;;;;;13.00;100.00;98362.38;6274780;22;20007;-73
2023/10/20 02:08:51;;;;;;;24.25;20.10;;;;;;;12.99;100.00;98347.81;6276193;22;20016;-73
2023/10/20 02:11:16;;;;;;;24.25;19.02;;;;;;;12.74;100.00;98297.94;6276614;22;20077;-73
2023/10/20 02:13:45;;;;;;;26.30;19.02;;;;;;;12.87;100.00;98312.91;6248377;22;20429;-73
2023/10/20 02:16:11;;;;;;;23.33;19.25;;;;;;;12.97;100.00;98334.19;6276887;22;20014;-74
2023/10/20 02:18:37;;;;;;;26.48;19.67;;;;;;;12.97;100.00;98325.63;6276404;22;20000;-73
2023/10/20 02:21:04;;;;;;;24.63;19.70;;;;;;;12.84;100.00;98316.66;6276044;22;20007;-74
2023/10/20 02:23:36;;;;;;;25.38;19.27;;;;;;;12.83;100.00;98317.63;6276086;22;19999;-73
2023/10/20 02:26:06;;;;;;;23.48;18.77;;;;;;;12.82;100.00;98310.84;6249143;22;20004;-73
2023/10/20 02:28:32;;;;;;;23.38;18.70;;;;;;;12.81;100.00;98309.22;6276550;22;20007;-72
2023/10/20 02:30:59;;;;;;;26.33;19.92;;;;;;;12.64;100.00;98272.28;6276738;22;20406;-73
2023/10/20 02:33:25;;;;;;;25.58;19.30;;;;;;;12.90;100.00;98315.16;6248857;22;20003;-74
2023/10/20 02:35:52;;;;;;;27.50;19.23;;;;;;;12.89;100.00;98306.59;6276345;22;20036;-77
2023/10/20 02:38:19;;;;;;;26.15;19.08;;;;;;;12.88;100.00;98294.63;6276376;22;20000;-75
2023/10/20 02:40:52;;;;;;;25.17;19.05;;;;;;;12.80;100.00;98275.75;6276592;22;20003;-78
2023/10/20 02:43:17;;;;;;;25.67;19.35;;;;;;;12.87;100.00;98289.59;6276187;22;20003;-74
2023/10/20 02:45:51;;;;;;;24.35;18.75;;;;;;;12.86;100.00;98278.41;6276339;22;20008;-82
2023/10/20 02:48:16;;;;;;;27.52;19.40;;;;;;;12.81;100.00;98261.81;6276347;22;20004;-78
2023/10/20 02:50:42;;;;;;;27.73;19.10;;;;;;;12.66;100.00;98229.84;6275938;22;20004;-75
2023/10/20 02:53:07;;;;;;;25.77;19.67;;;;;;;12.85;100.00;98258.69;6276374;22;20071;-82
2023/10/20 02:55:33;;;;;;;23.92;19.35;;;;;;;12.70;100.00;98234.53;6275907;22;20010;-80
2023/10/20 02:58:00;;;;;;;29.00;19.83;;;;;;;12.84;100.00;98246.72;6276212;22;20031;-74
2023/10/20 03:00:26;;;;;;;27.55;20.45;;;;;;;12.83;100.00;98241.72;6274473;22;20097;-83
2023/10/20 03:02:53;;;;;;;25.40;19.98;;;;;;;12.83;100.00;98234.75;6275760;22;20004;-83
2023/10/20 03:05:19;;;;;;;24.95;19.50;;;;;;;12.71;100.00;98223.19;6275775;22;20007;-82
2023/10/20 03:07:47;;;;;;;25.70;19.77;;;;;;;12.83;100.00;98232.16;6275806;22;20415;-83
2023/10/20 03:10:12;;;;;;;26.77;20.80;;;;;;;12.84;100.00;98215.63;6275802;22;20020;-82
2023/10/20 03:12:38;;;;;;;25.80;20.58;;;;;;;12.85;100.00;98211.25;6276025;22;20071;-80
2023/10/20 03:15:06;;;;;;;28.30;20.67;;;;;;;12.84;100.00;98202.69;6276100;22;20004;-82
2023/10/20 03:17:31;;;;;;;25.92;20.27;;;;;;;12.84;100.00;98204.47;6248898;22;20064;-81
2023/10/20 03:19:57;;;;;;;27.67;20.73;;;;;;;12.79;100.00;98199.84;6275996;22;20074;-84
2023/10/20 03:22:22;;;;;;;25.73;20.77;;;;;;;12.85;100.00;98201.69;6275993;22;20003;-79
2023/10/20 03:24:47;;;;;;;28.35;22.08;;;;;;;12.84;100.00;98207.88;6276449;22;20010;-80
2023/10/20 03:27:13;;;;;;;27.65;20.50;;;;;;;12.66;100.00;98184.06;6273436;22;20072;-84
2023/10/20 03:29:38;;;;;;;26.98;21.67;;;;;;;12.78;100.00;98203.41;6274613;22;20004;-84
2023/10/20 03:32:04;;;;;;;26.92;20.92;;;;;;;12.84;100.00;98205.28;6276303;22;20034;-84
2023/10/20 03:34:31;;;;;;;25.45;20.60;;;;;;;12.70;100.00;98179.34;6276166;22;20003;-84
2023/10/20 03:36:57;;;;;;;26.30;19.75;;;;;;;12.78;100.00;98184.44;6276031;22;20004;-85
2023/10/20 03:39:23;;;;;;;25.17;19.63;;;;;;;12.56;100.00;98137.69;6276087;22;20068;-84
2023/10/20 03:41:50;;;;;;;25.70;20.67;;;;;;;12.82;100.00;98168.41;6276590;22;20122;-83
2023/10/20 03:44:15;;;;;;;27.17;19.92;;;;;;;12.81;100.00;98168.56;6275796;22;20330;-80
2023/10/20 03:46:49;;;;;;;29.38;21.35;;;;;;;12.81;100.00;98164.19;6275634;22;20008;-84
2023/10/20 03:49:18;;;;;;;26.08;19.63;;;;;;;12.69;100.00;98155.25;6275830;22;20004;-84
2023/10/20 03:51:49;;;;;;;26.48;19.42;;;;;;;12.75;100.00;98167.47;6275956;22;19999;-84
2023/10/20 03:54:15;;;;;;;27.02;20.20;;;;;;;12.83;100.00;98184.75;6276227;22;20074;-84
2023/10/20 03:56:41;;;;;;;24.15;19.73;;;;;;;12.72;100.00;98165.25;6248646;22;20012;-85
2023/10/20 03:59:07;;;;;;;25.88;20.25;;;;;;;12.84;100.00;98161.25;6248663;22;20281;-84
2023/10/20 04:01:33;;;;;;;28.73;20.65;;;;;;;12.77;100.00;98126.66;6275613;22;20003;-84
2023/10/20 04:03:59;;;;;;;29.10;20.70;;;;;;;12.84;100.00;98150.88;6249011;22;20380;-83
2023/10/20 04:06:24;;;;;;;27.10;20.13;;;;;;;12.81;100.00;98146.06;6275565;22;20028;-85
2023/10/20 04:08:49;;;;;;;28.05;20.88;;;;;;;12.87;100.00;98147.94;6223405;22;20150;-85
2023/10/20 04:11:15;;;;;;;26.92;20.75;;;;;;;12.86;100.00;98154.09;6275826;22;20038;-84
2023/10/20 04:13:40;;;;;;;25.65;20.23;;;;;;;12.86;100.00;98148.91;6275923;22;20003;-82
2023/10/20 04:16:12;;;;;;;26.65;21.05;;;;;;;12.87;100.00;98137.56;6277181;22;20054;-82
2023/10/20 04:18:41;;;;;;;28.05;21.67;;;;;;;12.87;100.00;98127.22;6277919;22;19999;-83
2023/10/20 04:21:07;;;;;;;29.75;22.35;;;;;;;12.87;100.00;98118.66;6279923;22;20414;-84
2023/10/20 04:23:32;;;;;;;25.00;20.02;;;;;;;12.76;100.00;98101.75;6280494;22;19995;-83
2023/10/20 04:25:58;;;;;;;25.67;21.08;;;;;;;12.83;100.00;98105.25;6278891;22;19999;-83
2023/10/20 04:28:32;;;;;;;26.95;21.42;;;;;;;12.88;100.00;98099.53;6277690;22;20000;-84
2023/10/20 04:42:31;;;;;;;29.90;23.13;;;;;;;12.81;100.00;98059.81;6277637;22;20508;-82
2023/10/20 05:01:04;;;;;;;31.63;24.58;;;;;;;12.85;100.00;98027.38;6184613;23;20005;-82
2023/10/20 05:03:34;;;;;;;28.17;24.60;;;;;;;12.80;100.00;98017.56;6183941;23;20013;-84
2023/10/20 05:06:19;;;;;;;30.83;24.33;;;;;;;12.67;100.00;97990.69;6159840;23;20009;-82
2023/10/20 05:08:46;;;;;;;31.63;24.92;;;;;;;12.80;100.00;98003.81;6183125;23;20016;-83
2023/10/20 05:11:12;;;;;;;30.83;25.20;;;;;;;12.88;100.00;98007.13;6183260;23;20017;-80
2023/10/20 05:13:37;;;;;;;32.03;25.52;;;;;;;12.83;100.00;97991.31;6183695;23;20052;-84
2023/10/20 05:16:03;;;;;;;32.10;26.90;;;;;;;12.89;100.00;98005.34;6183540;23;20132;-83
2023/10/20 05:18:29;;;;;;;29.60;25.23;;;;;;;12.90;100.00;97996.56;6158660;23;20009;-82
2023/10/20 05:20:55;;;;;;;30.35;26.65;;;;;;;12.88;100.00;97996.75;6183537;23;20044;-83
2023/10/20 05:23:20;;;;;;;32.25;26.48;;;;;;;12.80;100.00;97983.91;6183471;23;20005;-84
2023/10/20 05:25:49;;;;;;;29.15;25.35;;;;;;;12.76;100.00;97958.53;6183379;23;20048;-82
2023/10/20 05:28:16;;;;;;;31.45;26.23;;;;;;;12.95;100.00;97983.06;6183813;23;20031;-79
2023/10/20 05:30:43;;;;;;;33.55;26.92;;;;;;;12.82;100.00;97966.41;6195148;22;20012;-83
2023/10/20 05:33:09;;;;;;;32.72;28.00;;;;;;;12.90;100.00;97975.88;6277174;22;20081;-80
2023/10/20 05:35:34;;;;;;;32.67;27.52;;;;;;;12.88;100.00;97983.81;6277117;22;20007;-81
2023/10/20 05:38:00;;;;;;;32.65;28.05;;;;;;;12.68;100.00;97953.44;6276879;22;20004;-82
2023/10/20 05:40:25;;;;;;;32.63;27.77;;;;;;;12.87;100.00;97989.94;6277145;22;20760;-82
2023/10/20 05:42:50;;;;;;;31.33;27.30;;;;;;;12.92;100.00;97990.22;6277321;22;20068;-83
2023/10/20 05:45:21;;;;;;;34.38;28.52;;;;;;;12.78;100.00;97980.69;6274639;22;20015;-83
2023/10/20 05:47:46;;;;;;;32.85;27.73;;;;;;;12.96;100.00;98006.19;6251049;22;20000;-84
2023/10/20 05:50:12;;;;;;;31.35;27.85;;;;;;;12.97;100.00;97988.88;6276962;22;20026;-84
2023/10/20 05:52:39;;;;;;;32.38;27.70;;;;;;;12.96;100.00;97984.69;6276728;22;20058;-83
2023/10/20 05:55:05;;;;;;;33.20;27.98;;;;;;;12.87;100.00;97977.00;6274072;22;20004;-81
2023/10/20 05:57:30;;;;;;;30.98;27.30;;;;;;;12.90;100.00;97978.44;6274463;22;20011;-84
2023/10/20 05:59:59;;;;;;;30.98;27.35;;;;;;;12.81;100.00;97954.44;6276733;22;20326;-79
2023/10/20 06:02:24;;;;;;;32.70;27.55;;;;;;;12.95;100.00;97977.91;6277131;22;20000;-79
2023/10/20 06:04:50;;;;;;;30.98;26.80;;;;;;;12.94;100.00;97977.09;6276595;22;20299;-83
2023/10/20 06:07:16;;;;;;;33.17;28.95;;;;;;;12.82;100.00;97953.44;6276518;22;20003;-83
2023/10/20 06:09:42;;;;;;;34.78;28.40;;;;;;;12.74;100.00;97940.59;6276135;22;20008;-83
2023/10/20 06:12:10;;;;;;;33.65;27.70;;;;;;;12.89;100.00;97958.72;6247696;22;20010;-85
2023/10/20 06:14:38;;;;;;;33.17;28.27;;;;;;;12.87;100.00;97956.28;6277068;22;20003;-70
2023/10/20 06:17:04;;;;;;;31.15;26.60;;;;;;;12.84;100.00;97940.31;6276978;22;20003;-72
2023/10/20 06:19:31;;;;;;;32.88;27.65;;;;;;;12.82;100.00;97953.44;6275791;22;19999;-82
2023/10/20 06:21:56;;;;;;;34.15;29.00;;;;;;;12.83;100.00;97968.00;6248655;22;20090;-79
2023/10/20 06:24:22;;;;;;;35.13;29.08;;;;;;;12.79;100.00;97969.34;6276252;22;20073;-80
2023/10/20 06:26:47;;;;;;;34.45;28.95;;;;;;;12.81;100.00;97975.16;6273363;22;20015;-78
2023/10/20 06:29:42;;;;;;;33.65;29.95;;;;;;;12.72;100.00;97955.53;6276109;22;20077;-73
2023/10/20 06:32:24;;;;;;;34.95;29.65;;;;;;;12.78;100.00;97935.84;6276342;22;20330;-75
2023/10/20 06:34:51;;;;;;;33.15;29.08;;;;;;;12.71;100.00;97933.19;6276225;22;20326;-83
2023/10/20 06:38:11;;;;;;;34.60;29.10;;;;;;;12.76;100.00;97945.59;6248758;22;20004;-84
2023/10/20 06:53:46;;;;;;;35.10;29.23;;;;;;;12.70;100.00;97947.13;6201328;22;20021;-78
2023/10/20 06:56:12;;;;;;;33.45;28.10;;;;;;;12.58;100.00;97920.06;6208053;23;20051;-80
2023/10/20 06:58:39;;;;;;;36.85;29.38;;;;;;;12.68;100.00;97941.31;6214888;23;20012;-80
2023/10/20 07:01:20;;;;;;;36.03;28.73;;;;;;;12.29;100.00;97887.25;6215114;23;20001;-79
2023/10/20 07:06:31;;;;;;;36.22;27.48;;;;;;;12.19;100.00;97869.44;6213454;22;20028;-79
2023/10/20 07:09:30;;;;;;;35.35;27.52;;;;;;;12.62;100.00;97931.69;6214778;23;20007;-80
2023/10/20 07:11:55;;;;;;;33.83;25.08;;;;;;;12.60;100.00;97928.47;6215197;23;20001;-78
2023/10/20 07:14:21;;;;;;;35.95;26.80;;;;;;;12.45;100.00;97912.16;6215270;23;20059;-79
2023/10/20 07:16:46;;;;;;;34.97;26.33;;;;;;;12.59;100.00;97932.06;6214734;23;20013;-80
2023/10/20 07:19:11;;;;;;;33.47;24.98;;;;;;;12.56;100.00;97924.63;6215308;23;20000;-80
2023/10/20 07:21:37;;;;;;;35.53;25.00;;;;;;;12.52;100.00;97926.78;6216227;23;20000;-80
2023/10/20 07:24:03;;;;;;;33.08;25.23;;;;;;;12.25;100.00;97888.59;6216381;23;20055;-80
2023/10/20 07:26:29;;;;;;;31.85;23.02;;;;;;;12.27;100.00;97889.22;6215835;23;20004;-81
2023/10/20 07:28:54;;;;;;;30.58;23.00;;;;;;;12.44;100.00;97926.06;6215666;23;20008;-80
2023/10/20 07:31:21;;;;;;;31.80;22.40;;;;;;;12.29;100.00;97913.97;6212892;23;20013;-81
2023/10/20 07:33:49;;;;;;;30.20;21.85;;;;;;;12.34;100.00;97927.16;6215189;23;20004;-81
2023/10/20 07:36:15;;;;;;;35.95;21.83;;;;;;;12.25;100.00;97915.28;6215417;23;20009;-78
2023/10/20 07:38:42;;;;;;;33.20;21.67;;;;;;;12.34;100.00;97927.16;6213829;23;20008;-76
2023/10/20 07:41:10;;;;;;;28.63;20.77;;;;;;;12.25;100.00;97915.28;6216153;23;20001;-82
2023/10/20 07:43:36;;;;;;;28.63;20.63;;;;;;;12.30;100.00;97930.28;6215222;23;20005;-83
2023/10/20 07:46:02;;;;;;;31.42;20.77;;;;;;;12.24;100.00;97924.03;6214274;23;20084;-82
2023/10/20 07:48:28;;;;;;;29.67;20.70;;;;;;;12.10;100.00;97898.16;6215353;23;20000;-83
2023/10/20 07:50:55;;;;;;;31.00;21.77;;;;;;;12.02;100.00;97889.50;6215131;23;20474;-84
2023/10/20 07:53:29;;;;;;;30.15;20.65;;;;;;;11.07;100.00;97749.69;6217717;23;20023;-82
2023/10/20 07:55:55;;;;;;;28.52;18.95;;;;;;;12.17;100.00;97922.31;6246958;23;20012;-80
2023/10/20 07:58:21;;;;;;;27.33;19.10;;;;;;;12.16;100.00;97907.78;6247287;23;20418;-83
2023/10/20 08:00:46;;;;;;;25.55;18.38;;;;;;;12.15;100.00;97908.75;6247064;23;20040;-80
2023/10/20 08:03:11;;;;;;;24.65;17.70;;;;;;;12.11;100.00;97908.31;6220495;23;20024;-84
2023/10/20 08:05:37;;;;;;;23.73;16.58;;;;;;;12.10;100.00;97900.75;6247021;23;20426;-76
2023/10/20 08:08:04;;;;;;;26.15;17.90;;;;;;;11.93;100.00;97859.53;6219823;23;20004;-75
2023/10/20 08:10:32;;;;;;;24.58;17.45;;;;;;;12.07;100.00;97886.38;6247069;23;20083;-75
2023/10/20 08:12:59;;;;;;;25.90;18.60;;;;;;;11.99;100.00;97884.66;6246487;23;20012;-83
2023/10/20 08:15:27;;;;;;;26.77;17.50;;;;;;;12.06;100.00;97887.34;6247280;23;20000;-77
2023/10/20 08:17:54;;;;;;;27.17;18.13;;;;;;;12.04;100.00;97892.72;6247237;23;20448;-76
2023/10/20 08:20:19;;;;;;;23.52;16.58;;;;;;;12.00;100.00;97890.66;6246704;23;20011;-81
2023/10/20 08:22:45;;;;;;;22.35;15.90;;;;;;;12.02;100.00;97896.47;6246946;23;20426;-76
2023/10/20 08:25:11;;;;;;;24.38;16.40;;;;;;;11.88;100.00;97890.28;6246125;23;20015;-75
2023/10/20 08:27:36;;;;;;;21.20;15.25;;;;;;;11.64;100.00;97854.28;6246713;23;20000;-76
2023/10/20 08:30:02;;;;;;;22.17;15.02;;;;;;;11.91;100.00;97899.47;6245761;23;20041;-72
2023/10/20 08:32:28;;;;;;;22.85;14.18;;;;;;;11.88;100.00;97892.06;6247249;23;20015;-76
2023/10/20 08:34:54;;;;;;;18.60;12.38;;;;;;;11.83;100.00;97891.78;6246839;23;20000;-76
2023/10/20 08:37:19;;;;;;;18.17;12.57;;;;;;;11.76;100.00;97897.63;6219765;23;20004;-73
2023/10/20 08:39:45;;;;;;;18.33;12.20;;;;;;;11.76;100.00;97905.38;6246596;23;20083;-72
2023/10/20 08:42:21;;;;;;;17.65;12.52;;;;;;;11.74;100.00;97902.19;6246173;23;20011;-79
2023/10/20 08:44:48;;;;;;;17.45;12.35;;;;;;;11.39;100.00;97851.91;6233009;22;20059;-76
2023/10/20 08:47:15;;;;;;;16.77;11.88;;;;;;;11.65;100.00;97895.47;6215985;23;20103;-77
2023/10/20 08:49:41;;;;;;;15.63;11.55;;;;;;;11.24;100.00;97827.03;6216279;23;20004;-79
2023/10/20 08:52:13;;;;;;;15.07;11.32;;;;;;;11.40;100.00;97852.72;6216058;23;20005;-83
2023/10/20 08:54:39;;;;;;;15.70;11.00;;;;;;;11.56;100.00;97883.59;6215845;23;20004;-78
2023/10/20 08:57:05;;;;;;;11.98;9.40;;;;;;;11.40;100.00;97873.38;6215844;23;20004;-75
2023/10/20 08:59:31;;;;;;;12.80;8.95;;;;;;;11.38;100.00;97872.75;6215895;23;20004;-77
2023/10/20 09:01:57;;;;;;;12.02;8.55;;;;;;;11.19;100.00;97846.41;6215699;23;20027;-76
2023/10/20 09:04:24;;;;;;;12.73;8.20;;;;;;;11.46;100.00;97883.84;6216220;23;20072;-77
2023/10/20 09:06:49;;;;;;;11.25;7.70;;;;;;;11.44;100.00;97872.06;6188735;23;20015;-76
2023/10/20 09:09:19;;;;;;;12.27;8.00;;;;;;;11.30;100.00;97852.94;6215899;23;20024;-79
2023/10/20 09:11:46;;;;;;;11.55;8.40;;;;;;;11.30;100.00;97855.53;6215845;23;20008;-77
2023/10/20 09:14:12;;;;;;;10.48;7.32;;;;;;;11.48;100.00;97896.56;6216329;23;20004;-79
2023/10/20 09:16:38;;;;;;;10.30;6.95;;;;;;;11.15;100.00;97849.53;6216043;23;20012;-77
2023/10/20 09:19:04;;;;;;;10.15;6.82;;;;;;;11.23;100.00;97870.13;6215975;23;20035;-76
2023/10/20 09:21:29;;;;;;;7.78;5.25;;;;;;;11.20;100.00;97875.63;6215892;23;20001;-78
2023/10/20 09:23:55;;;;;;;8.50;5.82;;;;;;;11.38;100.00;97896.81;6216659;23;20082;-75
2023/10/20 09:26:21;;;;;;;8.93;6.25;;;;;;;11.39;100.00;97889.88;6215960;23;20017;-78
2023/10/20 09:28:49;;;;;;;7.93;5.47;;;;;;;11.32;100.00;97874.28;6216076;23;20004;-80
2023/10/20 09:31:16;;;;;;;8.15;5.80;;;;;;;11.34;100.00;97863.75;6215836;23;20015;-78
2023/10/20 09:33:42;;;;;;;7.05;5.30;;;;;;;11.31;100.00;97866.69;6216233;23;20008;-74
2023/10/20 09:36:07;;;;;;;8.50;5.50;;;;;;;11.28;100.00;97885.09;6215781;23;20004;-76
2023/10/20 09:38:37;;;;;;;6.88;4.88;;;;;;;11.24;100.00;97876.09;6215778;23;20459;-78
2023/10/20 09:41:12;;;;;;;7.72;5.35;;;;;;;11.30;100.00;97888.31;6215511;23;20004;-83
2023/10/20 09:43:46;;;;;;;6.88;4.57;;;;;;;11.29;100.00;97884.13;6215532;23;20493;-77
2023/10/20 09:46:20;;;;;;;6.45;4.93;;;;;;;11.05;100.00;97860.09;6215356;23;20013;-77
2023/10/20 09:48:51;;;;;;;16.40;5.15;;;;;;;10.97;100.00;97836.91;6215903;23;20380;-82
2023/10/20 09:51:19;;;;;;;5.95;4.38;;;;;;;10.99;100.00;97853.03;6215685;23;20001;-78
2023/10/20 09:53:46;;;;;;;6.45;4.70;;;;;;;11.14;100.00;97878.91;6216217;23;20323;-78
2023/10/20 09:56:12;;;;;;;7.75;4.82;;;;;;;10.90;100.00;97843.72;6215455;23;20004;-78
2023/10/20 09:58:38;;;;;;;7.72;5.05;;;;;;;11.15;100.00;97883.91;6215883;23;20079;-78
2023/10/20 10:01:06;;;;;;;6.28;4.55;;;;;;;11.11;100.00;97874.91;6187812;23;20032;-79
2023/10/20 10:03:39;;;;;;;5.97;4.50;;;;;;;11.00;100.00;97853.81;6215528;23;20012;-75
2023/10/20 10:06:16;;;;;;;7.68;4.47;;;;;;;11.09;100.00;97870.88;6215411;23;20115;-76
2023/10/20 10:08:43;;;;;;;6.68;4.75;;;;;;;11.07;100.00;97872.81;6215962;23;20040;-82
2023/10/20 10:11:27;;;;;;;7.40;4.85;;;;;;;11.07;100.00;97878.00;6215989;23;20007;-80
2023/10/20 10:19:09;;;;;;;6.90;5.45;;;;;;;10.68;100.00;97795.47;6218281;22;20029;-82
2023/10/20 10:21:49;;;;;;;6.70;5.50;;;;;;;11.17;100.00;97857.91;6215598;23;20020;-74
2023/10/20 10:24:20;;;;;;;8.38;5.70;;;;;;;11.28;100.00;97867.03;6215934;23;20004;-79
2023/10/20 10:26:59;;;;;;;7.22;6.03;;;;;;;11.25;100.00;97855.28;6216275;23;20008;-75
2023/10/20 10:30:05;;;;;;;7.30;5.80;;;;;;;11.27;100.00;97848.13;6220190;23;20004;-77
2023/10/20 10:32:32;;;;;;;6.63;5.10;;;;;;;11.24;100.00;97858.84;6215318;23;20004;-77
2023/10/20 10:34:58;;;;;;;6.90;5.25;;;;;;;11.22;100.00;97857.41;6215324;23;20005;-77
2023/10/20 10:37:37;;;;;;;7.13;5.63;;;;;;;11.23;100.00;97841.72;6215153;23;20427;-77
2023/10/20 10:40:10;;;;;;;6.70;5.40;;;;;;;11.18;100.00;97831.09;6214923;23;20322;-78
2023/10/20 10:42:46;;;;;;;7.55;5.10;;;;;;;10.99;100.00;97806.53;6215485;23;20036;-79
2023/10/20 10:45:33;;;;;;;6.70;5.63;;;;;;;11.14;100.00;97822.91;6215625;23;20004;-79
2023/10/20 10:48:09;;;;;;;7.78;5.40;;;;;;;11.08;100.00;97802.13;6215191;23;20326;-82
2023/10/20 10:50:43;;;;;;;7.28;5.68;;;;;;;11.26;100.00;97819.91;6215586;23;20020;-77
2023/10/20 10:53:12;;;;;;;6.90;5.50;;;;;;;11.04;100.00;97788.78;6215124;23;20004;-84
2023/10/20 10:55:39;;;;;;;7.63;6.00;;;;;;;11.24;100.00;97821.88;6215280;23;20067;-79
2023/10/20 10:58:12;;;;;;;7.30;5.50;;;;;;;11.23;100.00;97815.09;6215517;23;20487;-83
2023/10/20 11:00:38;;;;;;;7.07;5.95;;;;;;;11.15;100.00;97795.28;6214932;23;20000;-85
2023/10/20 11:03:05;;;;;;;7.38;6.03;;;;;;;10.94;100.00;97757.22;6216072;23;20277;-81
2023/10/20 11:05:32;;;;;;;7.70;6.45;;;;;;;11.30;100.00;97798.69;6214962;23;20155;-86
2023/10/20 11:08:03;;;;;;;6.90;6.10;;;;;;;10.99;100.00;97741.19;6215329;23;20419;-89
2023/10/20 11:10:32;;;;;;;6.97;5.80;;;;;;;11.30;100.00;97782.41;6215504;23;20005;-80
2023/10/20 11:12:58;;;;;;;7.40;6.50;;;;;;;11.36;100.00;97781.72;6214238;23;20004;-88
2023/10/20 11:15:30;;;;;;;7.57;6.78;;;;;;;11.40;100.00;97780.38;6215214;23;20427;-85
2023/10/20 11:17:57;;;;;;;8.35;7.32;;;;;;;11.41;100.00;97769.88;6215225;23;20017;-86
2023/10/20 11:20:23;;;;;;;9.27;7.85;;;;;;;11.54;100.00;97771.03;6218697;23;20007;-90
2023/10/20 11:22:55;;;;;;;8.60;7.70;;;;;;;11.55;100.00;97768.28;6213246;23;20044;-88
2023/10/20 11:25:22;;;;;;;9.48;8.10;;;;;;;11.58;100.00;97772.28;6221481;23;20012;-91
2023/10/20 11:27:54;;;;;;;10.70;8.05;;;;;;;11.53;100.00;97759.09;6215505;23;20454;-91
2023/10/20 11:30:26;;;;;;;10.05;8.40;;;;;;;11.52;100.00;97760.88;6215324;23;20008;-90
2023/10/20 11:32:55;;;;;;;10.05;9.05;;;;;;;11.53;100.00;97766.88;6218105;23;20039;-91
2023/10/20 11:35:21;;;;;;;9.77;8.85;;;;;;;11.51;100.00;97753.31;6215564;23;20442;-88
2023/10/20 11:37:48;;;;;;;9.73;8.73;;;;;;;11.46;100.00;97746.88;6220300;23;20000;-92
2023/10/20 11:40:15;;;;;;;11.23;10.13;;;;;;;11.55;100.00;97750.19;6217036;23;20157;-88
2023/10/20 11:42:41;;;;;;;11.32;10.23;;;;;;;11.54;100.00;97745.19;6219270;23;20005;-84
2023/10/20 11:45:07;;;;;;;10.68;9.57;;;;;;;11.56;100.00;97756.97;6220496;23;20011;-89
2023/10/20 11:47:33;;;;;;;11.07;10.00;;;;;;;11.58;100.00;97749.03;6220323;23;20479;-91
2023/10/20 11:49:58;;;;;;;12.40;11.20;;;;;;;11.59;100.00;97748.84;6224125;23;20064;-86
2023/10/20 11:52:24;;;;;;;13.07;11.80;;;;;;;11.43;100.00;97716.25;6227196;23;19989;-86
2023/10/20 11:54:50;;;;;;;13.13;11.73;;;;;;;11.71;100.00;97736.28;6230393;23;20011;-90
2023/10/20 11:57:17;;;;;;;12.95;11.65;;;;;;;11.61;100.00;97721.06;6220641;23;20005;-94
2023/10/20 11:59:43;;;;;;;13.85;12.55;;;;;;;11.68;100.00;97721.94;6221487;23;20012;-91
2023/10/20 12:02:08;;;;;;;13.02;11.73;;;;;;;11.46;100.00;97691.81;6216258;23;20342;-90